Time;durP1;ratioP1;P1;durP2;ratioP2;P2;SDS_P1;SDS_P2;PMS_P1;PMS_P2;Temp;Humidity;BMP_temperature;BMP_pressure;BME280_temperature;BME280_humidity;BME280_pressure;Samples;Min_cycle;Max_cycle;Signal;HPM_P1;HPM_P2
2023/06/04 00:02:23;;;;;;;3.22;2.25;;;;;;;18.00;38.04;96672.34;4974378;28;20051;-75
2023/06/04 00:04:51;;;;;;;3.05;1.92;;;;;;;17.96;38.04;96673.84;4974174;28;20080;-75
2023/06/04 00:07:19;;;;;;;3.55;1.92;;;;;;;17.88;37.87;96671.53;4974238;28;20114;-75
2023/06/04 00:09:47;;;;;;;2.28;1.60;;;;;;;17.78;37.71;96673.91;4974328;28;20054;-75
2023/06/04 00:12:15;;;;;;;2.20;1.90;;;;;;;17.69;38.04;96679.47;4974322;28;20105;-75
2023/06/04 00:14:44;;;;;;;2.00;1.67;;;;;;;17.65;38.23;96674.88;4974282;28;20054;-76
2023/06/04 00:17:12;;;;;;;2.13;1.80;;;;;;;17.65;37.88;96680.97;4973605;28;20134;-75
2023/06/04 00:19:40;;;;;;;1.50;1.40;;;;;;;17.60;37.94;96678.19;4973991;28;20101;-75
2023/06/04 00:22:08;;;;;;;2.58;1.67;;;;;;;17.51;38.05;96674.25;4974052;28;20110;-75
2023/06/04 00:24:38;;;;;;;2.90;1.80;;;;;;;17.49;38.55;96673.66;4974002;28;20137;-75
2023/06/04 00:27:07;;;;;;;3.05;1.65;;;;;;;17.52;38.47;96675.06;4974061;28;20082;-75
2023/06/04 00:29:35;;;;;;;2.30;1.63;;;;;;;17.55;38.19;96678.03;4974083;28;20116;-75
2023/06/04 00:32:04;;;;;;;2.95;1.90;;;;;;;17.54;37.73;96673.81;4973788;28;20541;-75
2023/06/04 00:34:32;;;;;;;3.08;1.70;;;;;;;17.52;37.89;96673.22;4973686;28;20050;-75
2023/06/04 00:37:01;;;;;;;5.05;1.92;;;;;;;17.53;37.68;96674.03;4973463;28;20710;-75
2023/06/04 00:39:29;;;;;;;2.05;1.58;;;;;;;17.55;39.22;96669.34;4973469;28;20511;-75
2023/06/04 00:41:56;;;;;;;4.00;2.08;;;;;;;17.57;37.80;96677.84;4973062;28;20055;-75
2023/06/04 00:44:25;;;;;;;2.45;1.90;;;;;;;17.55;38.10;96680.69;4973922;28;20138;-75
2023/06/04 00:46:53;;;;;;;2.58;1.70;;;;;;;17.52;37.89;96681.16;4973200;28;20054;-74
2023/06/04 00:49:22;;;;;;;7.20;1.58;;;;;;;17.49;38.23;96676.31;4973746;28;20047;-75
2023/06/04 00:51:51;;;;;;;5.38;1.88;;;;;;;17.44;38.22;96673.53;4973497;28;20105;-75
2023/06/04 00:54:20;;;;;;;2.72;1.75;;;;;;;17.36;38.60;96676.47;4973374;28;20054;-75
2023/06/04 00:56:48;;;;;;;3.05;1.67;;;;;;;17.27;38.67;96678.63;4973665;28;20459;-75
2023/06/04 00:59:16;;;;;;;2.55;1.65;;;;;;;17.20;38.87;96681.34;4973191;28;20495;-75
2023/06/04 01:01:51;;;;;;;4.07;1.95;;;;;;;17.12;38.92;96686.09;4973369;28;20078;-75
2023/06/04 01:04:28;;;;;;;2.38;1.80;;;;;;;17.07;38.61;96684.13;4973292;28;20054;-75
2023/06/04 01:06:58;;;;;;;7.55;1.85;;;;;;;17.01;39.68;96690.28;4973321;28;20466;-75
2023/06/04 01:09:27;;;;;;;3.05;1.73;;;;;;;16.92;39.72;96684.50;4973384;28;20074;-75
2023/06/04 01:11:57;;;;;;;6.18;2.05;;;;;;;16.87;39.99;96687.00;4973258;28;20058;-75
2023/06/04 01:14:25;;;;;;;3.72;2.00;;;;;;;16.80;40.15;96691.53;4973115;28;20105;-75
2023/06/04 01:17:01;;;;;;;11.55;2.13;;;;;;;16.72;40.30;96697.06;4972933;28;20046;-75
2023/06/04 01:20:02;;;;;;;4.00;2.05;;;;;;;16.66;40.39;96690.81;4973234;28;20046;-75
2023/06/04 01:22:36;;;;;;;3.70;1.92;;;;;;;16.63;40.47;96693.91;4972893;28;20090;-75
2023/06/04 01:25:06;;;;;;;2.53;1.52;;;;;;;16.60;41.02;96689.06;4973209;28;20049;-75
2023/06/04 01:27:35;;;;;;;2.75;1.83;;;;;;;16.54;40.87;96684.66;4972792;28;20518;-75
2023/06/04 01:30:03;;;;;;;3.63;1.80;;;;;;;16.46;41.01;96693.63;4972920;28;20130;-75
2023/06/04 01:32:31;;;;;;;2.97;2.22;;;;;;;16.44;41.29;96691.25;4972796;28;20059;-75
2023/06/04 01:35:01;;;;;;;3.80;1.85;;;;;;;16.42;41.83;96693.28;4972669;28;20043;-75
2023/06/04 01:37:28;;;;;;;5.13;2.20;;;;;;;16.39;41.36;96687.63;4973063;28;20482;-75
2023/06/04 01:39:56;;;;;;;3.95;1.73;;;;;;;16.30;41.40;96681.03;4972884;28;20058;-75
2023/06/04 01:42:23;;;;;;;2.95;1.90;;;;;;;16.18;42.14;96686.19;4972841;28;20109;-74
2023/06/04 01:44:51;;;;;;;2.97;2.00;;;;;;;16.09;42.52;96687.47;4972818;28;20050;-75
2023/06/04 01:47:18;;;;;;;2.70;1.92;;;;;;;15.98;42.96;96691.59;4972612;28;20470;-75
2023/06/04 01:49:46;;;;;;;4.57;2.22;;;;;;;15.88;43.21;96684.19;4973152;28;20131;-75
2023/06/04 01:52:17;;;;;;;3.35;2.25;;;;;;;15.82;43.62;96687.66;4974788;28;20051;-75
2023/06/04 01:54:45;;;;;;;2.85;2.42;;;;;;;15.73;44.10;96691.56;4976490;28;20051;-75
2023/06/04 01:57:13;;;;;;;3.25;1.80;;;;;;;15.66;44.31;96689.75;4976436;28;20081;-75
2023/06/04 01:59:41;;;;;;;4.43;2.05;;;;;;;15.64;43.98;96691.78;4976500;28;20085;-75
2023/06/04 02:02:09;;;;;;;2.03;1.65;;;;;;;15.63;43.96;96690.19;4976513;28;20549;-75
2023/06/04 02:04:37;;;;;;;6.13;2.20;;;;;;;15.64;44.20;96691.00;4976265;28;20049;-75
2023/06/04 02:07:06;;;;;;;3.28;2.10;;;;;;;15.60;44.34;96693.22;4976171;28;20470;-75
2023/06/04 02:09:35;;;;;;;4.25;2.42;;;;;;;15.56;43.98;96688.59;4976297;28;20554;-75
2023/06/04 02:12:04;;;;;;;3.65;1.88;;;;;;;15.50;43.59;96695.50;4976461;28;20047;-75
2023/06/04 02:14:31;;;;;;;2.60;2.13;;;;;;;15.46;43.38;96696.97;4976105;28;20169;-75
2023/06/04 02:17:00;;;;;;;3.90;1.70;;;;;;;15.39;43.13;96698.78;4976431;28;20106;-74
2023/06/04 02:19:28;;;;;;;4.43;2.15;;;;;;;15.30;43.25;96694.78;4976348;28;20113;-75
2023/06/04 02:21:56;;;;;;;4.05;1.60;;;;;;;15.28;43.45;96696.81;4976384;28;20138;-75
2023/06/04 02:24:24;;;;;;;3.25;2.20;;;;;;;15.25;43.46;96698.84;4976253;28;20055;-75
2023/06/04 02:26:53;;;;;;;3.15;1.80;;;;;;;15.24;43.46;96702.50;4975809;28;20078;-74
2023/06/04 02:29:21;;;;;;;3.60;1.98;;;;;;;15.21;43.42;96697.66;4976194;28;20054;-75
2023/06/04 02:31:48;;;;;;;1.88;1.70;;;;;;;15.20;43.49;96698.69;4975927;28;20614;-75
2023/06/04 02:34:16;;;;;;;2.00;1.80;;;;;;;15.29;44.02;96698.44;4975719;28;20563;-75
2023/06/04 02:36:50;;;;;;;3.47;1.67;;;;;;;15.37;43.12;96701.66;4975603;28;20046;-75
2023/06/04 02:39:20;;;;;;;1.95;1.50;;;;;;;15.43;43.83;96700.00;4975977;28;20059;-75
2023/06/04 02:41:47;;;;;;;3.40;1.42;;;;;;;15.50;43.52;96694.69;4976195;28;20148;-74
2023/06/04 02:44:16;;;;;;;2.30;1.75;;;;;;;15.48;42.90;96697.56;4976140;28;20050;-75
2023/06/04 02:46:44;;;;;;;3.35;1.52;;;;;;;15.42;43.23;96703.66;4975473;28;20051;-75
2023/06/04 02:49:13;;;;;;;3.58;1.70;;;;;;;15.41;43.14;96697.59;4975533;28;20565;-75
2023/06/04 02:51:41;;;;;;;2.72;1.92;;;;;;;15.41;43.20;96696.75;4975561;28;20074;-75
2023/06/04 02:54:09;;;;;;;3.53;1.98;;;;;;;15.36;43.69;96694.75;4975562;28;20055;-75
2023/06/04 02:56:37;;;;;;;2.72;1.95;;;;;;;15.29;44.40;96703.72;4975157;28;20090;-75
2023/06/04 02:59:05;;;;;;;2.78;1.52;;;;;;;15.18;44.84;96705.16;4975617;28;20101;-75
2023/06/04 03:01:34;;;;;;;2.50;2.05;;;;;;;15.06;45.05;96702.34;4975469;28;20054;-75
2023/06/04 03:04:04;;;;;;;2.83;1.92;;;;;;;14.98;45.49;96702.59;4974564;28;20474;-74
2023/06/04 03:06:33;;;;;;;5.28;2.10;;;;;;;14.87;45.64;96705.84;4975179;28;20423;-75
2023/06/04 03:09:00;;;;;;;3.10;1.80;;;;;;;14.77;46.04;96707.09;4975655;28;20055;-74
2023/06/04 03:11:28;;;;;;;1.98;1.65;;;;;;;14.69;46.27;96707.28;4975380;28;20051;-74
2023/06/04 03:13:56;;;;;;;4.07;2.05;;;;;;;14.62;46.29;96709.13;4975205;28;20046;-74
2023/06/04 03:16:24;;;;;;;3.90;1.95;;;;;;;14.54;46.49;96706.69;4974687;28;20053;-74
2023/06/04 03:18:53;;;;;;;2.03;1.63;;;;;;;14.47;46.81;96711.94;4974909;28;20129;-74
2023/06/04 03:21:20;;;;;;;2.92;2.20;;;;;;;14.40;47.19;96711.16;4974714;28;20050;-75
2023/06/04 03:23:48;;;;;;;4.00;1.90;;;;;;;14.35;47.43;96705.72;4975535;28;20153;-74
2023/06/04 03:26:16;;;;;;;2.78;2.08;;;;;;;14.30;47.60;96708.94;4975146;28;20070;-75
2023/06/04 03:28:43;;;;;;;2.70;2.20;;;;;;;14.25;47.78;96718.41;4974967;28;20490;-74
2023/06/04 03:31:11;;;;;;;7.30;2.08;;;;;;;14.18;47.93;96713.97;4975166;28;20141;-74
2023/06/04 03:33:38;;;;;;;3.78;1.70;;;;;;;14.15;48.02;96719.63;4974776;28;20054;-74
2023/06/04 03:36:07;;;;;;;4.30;2.25;;;;;;;14.13;48.28;96718.22;4974548;28;20055;-76
2023/06/04 03:38:35;;;;;;;3.05;1.77;;;;;;;14.11;48.50;96723.66;4974883;28;20105;-74
2023/06/04 03:41:02;;;;;;;1.73;1.60;;;;;;;14.09;48.69;96715.19;4974662;28;20434;-73
2023/06/04 03:43:30;;;;;;;3.22;2.03;;;;;;;14.10;48.93;96727.31;4974843;28;20066;-73
2023/06/04 03:45:58;;;;;;;4.32;1.80;;;;;;;14.09;48.55;96725.69;4974702;28;20046;-74
2023/06/04 03:48:25;;;;;;;4.00;2.05;;;;;;;14.10;48.12;96726.47;4974582;28;20061;-73
2023/06/04 03:50:53;;;;;;;2.60;2.05;;;;;;;14.11;48.35;96728.91;4974927;28;20062;-73
2023/06/04 03:53:22;;;;;;;2.72;1.50;;;;;;;14.12;48.27;96724.47;4974637;28;20443;-73
2023/06/04 03:55:49;;;;;;;4.45;1.70;;;;;;;14.12;48.73;96730.50;4974764;28;20129;-76
2023/06/04 03:58:17;;;;;;;3.38;1.85;;;;;;;14.14;48.66;96731.13;4975162;28;20051;-74
2023/06/04 04:00:45;;;;;;;2.28;1.77;;;;;;;14.12;48.75;96730.50;4977905;28;20051;-74
2023/06/04 04:03:13;;;;;;;2.83;1.70;;;;;;;14.16;48.92;96733.56;4978211;28;20054;-73
2023/06/04 04:05:40;;;;;;;3.90;1.98;;;;;;;14.16;48.70;96731.72;4978245;28;20051;-73
2023/06/04 04:08:08;;;;;;;3.15;1.85;;;;;;;14.20;49.03;96737.41;4975630;28;20427;-74
2023/06/04 04:10:37;;;;;;;2.67;1.92;;;;;;;14.21;48.93;96739.81;4974804;28;20273;-73
2023/06/04 04:13:05;;;;;;;3.30;2.17;;;;;;;14.16;49.03;96747.47;4974915;28;20429;-73
2023/06/04 04:15:33;;;;;;;3.45;1.85;;;;;;;14.12;49.29;96740.22;4974093;28;20141;-73
2023/06/04 04:18:01;;;;;;;4.60;2.00;;;;;;;14.06;49.15;96741.84;4974378;28;20074;-73
2023/06/04 04:20:28;;;;;;;3.58;1.70;;;;;;;14.03;49.31;96736.97;4974445;28;20534;-74
2023/06/04 04:22:56;;;;;;;5.05;2.10;;;;;;;14.00;49.34;96738.19;4974141;28;20047;-76
2023/06/04 04:25:24;;;;;;;2.67;1.73;;;;;;;13.98;49.67;96742.81;4974054;28;20526;-76
2023/06/04 04:27:56;;;;;;;3.53;1.92;;;;;;;14.02;49.67;96735.38;4974673;28;20503;-73
2023/06/04 04:30:24;;;;;;;4.40;2.25;;;;;;;14.05;49.49;96745.44;4974304;28;20065;-73
2023/06/04 04:32:51;;;;;;;2.88;1.83;;;;;;;14.08;49.46;96750.31;4974166;28;20137;-73
2023/06/04 04:35:19;;;;;;;1.95;1.70;;;;;;;14.12;48.66;96746.25;4974058;28;20493;-73
2023/06/04 04:37:47;;;;;;;3.58;1.67;;;;;;;14.14;49.17;96753.94;4973909;28;20494;-73
2023/06/04 04:40:15;;;;;;;4.13;2.30;;;;;;;14.14;49.65;96756.56;4973796;28;20426;-73
2023/06/04 04:42:43;;;;;;;2.83;1.88;;;;;;;14.15;49.55;96760.81;4974153;28;20054;-73
2023/06/04 04:45:12;;;;;;;2.30;1.83;;;;;;;14.18;49.09;96760.41;4973930;28;20130;-73
2023/06/04 04:47:39;;;;;;;1.42;1.33;;;;;;;14.27;49.61;96753.94;4973685;28;20129;-73
2023/06/04 04:50:08;;;;;;;1.80;1.58;;;;;;;14.41;48.24;96752.16;4973886;28;20098;-73
2023/06/04 04:52:35;;;;;;;1.60;1.30;;;;;;;14.54;48.77;96753.94;4973535;28;20101;-73
2023/06/04 04:55:03;;;;;;;2.17;1.80;;;;;;;14.65;47.87;96761.25;4973134;28;20142;-73
2023/06/04 04:57:31;;;;;;;2.28;1.80;;;;;;;14.72;47.54;96756.78;4973627;28;20105;-73
2023/06/04 04:59:58;;;;;;;2.90;1.65;;;;;;;14.83;47.28;96761.41;4973531;28;20141;-76
2023/06/04 05:02:27;;;;;;;5.53;1.50;;;;;;;14.91;47.27;96759.59;4973843;28;20055;-74
2023/06/04 05:04:55;;;;;;;1.90;1.75;;;;;;;14.97;47.31;96762.19;4972767;28;20051;-75
2023/06/04 05:07:24;;;;;;;5.28;2.15;;;;;;;14.97;46.70;96766.66;4972856;28;20082;-75
2023/06/04 05:09:52;;;;;;;2.78;1.73;;;;;;;14.90;46.62;96768.50;4972943;28;20050;-75
2023/06/04 05:12:20;;;;;;;3.55;1.88;;;;;;;14.86;46.77;96767.28;4973242;28;20109;-75
2023/06/04 05:14:47;;;;;;;1.45;1.30;;;;;;;14.81;46.70;96773.16;4972830;28;20186;-74
2023/06/04 05:17:16;;;;;;;4.07;1.90;;;;;;;14.80;47.13;96769.72;4972894;28;20130;-75
2023/06/04 05:19:47;;;;;;;2.22;1.67;;;;;;;14.77;47.15;96767.50;4972566;28;20062;-75
2023/06/04 05:22:16;;;;;;;4.70;1.55;;;;;;;14.78;47.11;96771.75;4972961;28;20121;-75
2023/06/04 05:24:43;;;;;;;2.63;1.90;;;;;;;14.80;47.01;96780.22;4972930;28;20105;-74
2023/06/04 05:27:11;;;;;;;6.22;2.05;;;;;;;14.86;47.06;96783.03;4972219;28;20149;-75
2023/06/04 05:29:38;;;;;;;2.53;1.63;;;;;;;14.91;46.68;96781.44;4972726;28;20474;-75
2023/06/04 05:32:07;;;;;;;5.40;1.70;;;;;;;14.96;46.84;96783.44;4972706;28;20058;-75
2023/06/04 05:34:36;;;;;;;4.85;2.00;;;;;;;14.96;46.58;96783.44;4972558;28;20093;-75
2023/06/04 05:37:08;;;;;;;2.90;1.60;;;;;;;14.99;46.89;96786.44;4972400;28;20050;-74
2023/06/04 05:39:38;;;;;;;2.40;1.65;;;;;;;15.10;47.52;96785.00;4972498;28;20047;-75
2023/06/04 05:42:07;;;;;;;2.35;1.75;;;;;;;15.18;46.52;96795.31;4972710;28;20466;-74
2023/06/04 05:44:34;;;;;;;2.13;1.60;;;;;;;15.22;46.34;96798.34;4972508;28;20125;-75
2023/06/04 05:47:02;;;;;;;2.15;1.60;;;;;;;15.31;46.18;96797.09;4972677;28;20101;-75
2023/06/04 05:49:30;;;;;;;4.00;2.10;;;;;;;15.38;45.79;96797.06;4972736;28;20109;-75
2023/06/04 05:51:57;;;;;;;3.65;1.50;;;;;;;15.42;45.75;96799.06;4972414;28;20054;-75
2023/06/04 05:54:27;;;;;;;1.52;1.40;;;;;;;15.47;45.57;96795.81;4972631;28;20050;-75
2023/06/04 05:56:55;;;;;;;3.47;1.60;;;;;;;15.54;45.62;96795.78;4972239;28;20533;-75
2023/06/04 05:59:22;;;;;;;1.85;1.65;;;;;;;15.60;45.72;96795.78;4972351;28;20055;-75
2023/06/04 06:01:50;;;;;;;1.80;1.50;;;;;;;15.68;45.63;96807.06;4972894;28;20137;-74
2023/06/04 06:04:18;;;;;;;1.85;1.42;;;;;;;15.75;46.25;96800.81;4972776;28;20101;-74
2023/06/04 06:06:47;;;;;;;4.32;1.63;;;;;;;15.84;46.12;96804.00;4972402;28;20130;-74
2023/06/04 06:09:15;;;;;;;2.47;1.88;;;;;;;15.90;45.70;96807.63;4972487;28;20114;-75
2023/06/04 06:11:43;;;;;;;2.08;1.50;;;;;;;15.95;45.70;96807.78;4972448;28;20079;-75
2023/06/04 06:14:11;;;;;;;3.22;1.70;;;;;;;15.99;45.28;96809.78;4972337;28;20486;-75
2023/06/04 06:16:40;;;;;;;6.32;1.65;;;;;;;16.04;45.24;96807.31;4972448;28;20055;-75
2023/06/04 06:19:07;;;;;;;3.63;1.85;;;;;;;16.11;44.85;96809.13;4972690;28;20051;-75
2023/06/04 06:21:36;;;;;;;1.95;1.65;;;;;;;16.20;44.60;96818.38;4972635;28;20050;-76
2023/06/04 06:24:04;;;;;;;2.20;1.52;;;;;;;16.30;43.98;96815.28;4972655;28;20047;-76
2023/06/04 06:26:31;;;;;;;2.97;1.63;;;;;;;16.39;43.15;96817.44;4971977;28;20130;-76
2023/06/04 06:29:00;;;;;;;5.35;2.15;;;;;;;16.49;43.20;96819.63;4972637;28;20403;-76
2023/06/04 06:31:28;;;;;;;3.03;1.80;;;;;;;16.59;42.58;96824.38;4972379;28;20491;-75
2023/06/04 06:33:56;;;;;;;3.15;1.52;;;;;;;16.69;42.29;96817.63;4972257;28;20051;-76
2023/06/04 06:36:23;;;;;;;4.25;2.17;;;;;;;16.78;42.36;96823.44;4971884;28;20042;-76
2023/06/04 06:38:52;;;;;;;2.35;1.70;;;;;;;16.88;42.50;96818.53;4973312;28;20086;-75
2023/06/04 06:41:19;;;;;;;2.53;1.73;;;;;;;16.98;42.19;96822.47;4976163;28;20054;-75
2023/06/04 06:43:47;;;;;;;3.88;1.50;;;;;;;17.04;41.77;96817.16;4975905;28;20058;-75
2023/06/04 06:46:16;;;;;;;4.80;2.15;;;;;;;17.12;41.85;96817.88;4975331;28;20047;-75
2023/06/04 06:48:45;;;;;;;3.85;1.73;;;;;;;17.20;42.03;96826.31;4975873;28;20050;-75
2023/06/04 06:51:13;;;;;;;3.80;1.70;;;;;;;17.30;41.47;96825.81;4975590;28;20081;-75
2023/06/04 06:53:40;;;;;;;2.35;1.50;;;;;;;17.40;41.18;96825.31;4975490;28;20047;-76
2023/06/04 06:56:08;;;;;;;4.80;2.08;;;;;;;17.50;41.24;96818.50;4975141;28;20047;-76
2023/06/04 06:58:36;;;;;;;6.03;1.85;;;;;;;17.62;41.07;96823.03;4975373;28;20055;-75
2023/06/04 07:01:03;;;;;;;2.25;1.52;;;;;;;17.70;40.72;96823.53;4975668;28;20067;-76
2023/06/04 07:03:33;;;;;;;5.53;2.20;;;;;;;17.80;40.59;96824.84;4975645;28;20537;-75
2023/06/04 07:06:00;;;;;;;2.97;1.50;;;;;;;17.87;40.60;96826.41;4975005;28;20149;-76
2023/06/04 07:08:29;;;;;;;4.35;1.63;;;;;;;17.97;41.12;96828.50;4975681;28;20050;-76
2023/06/04 07:10:56;;;;;;;3.03;1.73;;;;;;;18.07;40.54;96826.16;4975468;28;20081;-74
2023/06/04 07:13:24;;;;;;;3.33;1.92;;;;;;;18.16;40.26;96831.94;4975657;28;20134;-75
2023/06/04 07:15:52;;;;;;;3.30;2.03;;;;;;;18.21;40.15;96821.50;4975032;28;20133;-75
2023/06/04 07:18:19;;;;;;;2.30;1.60;;;;;;;18.31;40.30;96818.31;4975236;28;20086;-74
2023/06/04 07:20:49;;;;;;;5.18;2.05;;;;;;;18.44;40.26;96826.03;4974809;28;20510;-74
2023/06/04 07:23:16;;;;;;;2.92;1.95;;;;;;;18.54;39.69;96825.47;4974772;28;20141;-75
2023/06/04 07:25:44;;;;;;;2.92;2.00;;;;;;;18.62;39.41;96819.06;4974770;28;20082;-75
2023/06/04 07:28:12;;;;;;;3.22;1.90;;;;;;;18.72;39.50;96820.13;4974754;28;20134;-75
2023/06/04 07:30:39;;;;;;;2.55;1.58;;;;;;;18.85;39.16;96826.28;4974768;28;20141;-74
2023/06/04 07:33:07;;;;;;;2.40;1.88;;;;;;;18.93;38.77;96828.56;4974548;28;20074;-75
2023/06/04 07:35:34;;;;;;;2.22;1.98;;;;;;;19.01;38.73;96814.22;4974530;28;20124;-75
2023/06/04 07:38:03;;;;;;;3.17;1.60;;;;;;;19.08;38.35;96818.34;4974480;28;20093;-75
2023/06/04 07:40:31;;;;;;;2.83;1.80;;;;;;;19.16;38.43;96822.47;4974477;28;20140;-75
2023/06/04 07:42:59;;;;;;;3.38;1.80;;;;;;;19.25;38.37;96821.09;4974437;28;20573;-75
2023/06/04 07:45:28;;;;;;;4.32;2.03;;;;;;;19.35;38.33;96820.53;4974392;28;20589;-74
2023/06/04 07:47:57;;;;;;;3.13;1.63;;;;;;;19.45;38.54;96819.91;4974465;28;20153;-75
2023/06/04 07:50:25;;;;;;;5.00;1.73;;;;;;;19.55;38.11;96825.44;4973932;28;20058;-75
2023/06/04 07:52:52;;;;;;;2.33;1.75;;;;;;;19.63;38.12;96827.69;4974232;28;20047;-74
2023/06/04 07:55:21;;;;;;;2.63;1.92;;;;;;;19.72;37.74;96826.34;4974009;28;20153;-74
2023/06/04 07:57:49;;;;;;;2.92;1.60;;;;;;;19.82;37.66;96824.94;4973850;28;20427;-75
2023/06/04 08:00:17;;;;;;;3.92;1.33;;;;;;;19.90;37.15;96827.22;4973825;28;20470;-75
2023/06/04 08:02:45;;;;;;;2.58;1.90;;;;;;;19.97;37.71;96825.22;4974328;28;20046;-75
2023/06/04 08:05:14;;;;;;;2.25;1.50;;;;;;;20.09;38.08;96830.47;4973605;28;20506;-75
2023/06/04 08:07:43;;;;;;;2.30;1.90;;;;;;;20.19;36.93;96829.84;4973972;28;20130;-75
2023/06/04 08:10:11;;;;;;;2.00;1.70;;;;;;;20.25;36.82;96819.13;4974113;28;20055;-75
2023/06/04 08:12:40;;;;;;;2.33;2.10;;;;;;;20.38;36.98;96818.03;4973871;28;20078;-75
2023/06/04 08:15:08;;;;;;;2.72;1.75;;;;;;;20.52;36.32;96819.31;4973760;28;20085;-75
2023/06/04 08:17:36;;;;;;;3.38;1.60;;;;;;;20.64;36.37;96815.81;4973548;28;20046;-75
2023/06/04 08:20:06;;;;;;;3.03;2.00;;;;;;;20.77;36.00;96811.00;4973536;28;20050;-75
2023/06/04 08:22:33;;;;;;;5.38;2.42;;;;;;;20.91;34.79;96805.38;4974005;28;20427;-75
2023/06/04 08:25:01;;;;;;;3.58;2.15;;;;;;;21.01;34.05;96812.66;4973477;28;20105;-75
2023/06/04 08:27:29;;;;;;;3.38;1.70;;;;;;;21.04;33.64;96806.88;4973682;28;20054;-75
2023/06/04 08:29:58;;;;;;;4.32;1.67;;;;;;;21.11;34.10;96810.97;4973505;28;20534;-74
2023/06/04 08:32:25;;;;;;;8.32;1.73;;;;;;;21.22;34.33;96806.59;4973631;28;20097;-76
2023/06/04 08:34:53;;;;;;;7.25;1.77;;;;;;;21.35;34.39;96800.16;4980849;28;20047;-73
2023/06/04 08:37:21;;;;;;;4.55;2.25;;;;;;;21.49;34.23;96805.91;4995324;28;20031;-74
2023/06/04 08:39:48;;;;;;;1.98;1.80;;;;;;;21.58;33.84;96815.06;4977723;28;20047;-75
2023/06/04 08:42:22;;;;;;;4.55;1.80;;;;;;;21.66;33.75;96806.66;4974750;28;20114;-75
2023/06/04 08:44:52;;;;;;;3.63;1.92;;;;;;;21.74;34.08;96814.19;4975155;28;20106;-74
2023/06/04 08:47:24;;;;;;;2.83;1.70;;;;;;;21.84;33.66;96812.72;4973952;28;20078;-75
2023/06/04 08:49:53;;;;;;;5.00;1.92;;;;;;;21.92;32.60;96825.56;4973968;28;20238;-75
2023/06/04 08:52:21;;;;;;;3.10;1.80;;;;;;;21.97;32.53;96818.47;4973414;28;20515;-75
2023/06/04 08:54:51;;;;;;;2.42;2.20;;;;;;;22.04;32.71;96818.25;4973431;28;20061;-75
2023/06/04 08:57:19;;;;;;;3.75;1.70;;;;;;;22.15;33.04;96817.31;4973243;28;20043;-74
2023/06/04 08:59:47;;;;;;;5.32;1.90;;;;;;;22.26;32.51;96820.06;4973448;28;20055;-75
2023/06/04 09:02:15;;;;;;;3.55;2.28;;;;;;;22.35;32.52;96813.28;4972780;28;20047;-75
2023/06/04 09:04:45;;;;;;;3.63;2.00;;;;;;;22.43;32.82;96820.78;4973269;28;20078;-75
2023/06/04 09:07:14;;;;;;;4.22;3.25;;;;;;;22.49;32.52;96819.78;4972876;28;20050;-75
2023/06/04 09:09:45;;;;;;;2.88;2.00;;;;;;;22.51;31.66;96817.66;4973156;28;20054;-75
2023/06/04 09:12:22;;;;;;;4.47;2.50;;;;;;;22.54;32.23;96822.50;4973357;28;20050;-75
2023/06/04 09:14:50;;;;;;;4.13;1.77;;;;;;;22.59;32.45;96814.56;4972681;28;20054;-75
2023/06/04 09:17:22;;;;;;;6.05;1.80;;;;;;;22.67;32.24;96831.88;4972434;28;20430;-75
2023/06/04 09:19:52;;;;;;;3.13;2.15;;;;;;;22.71;32.16;96819.69;4973400;28;20053;-75
2023/06/04 09:22:19;;;;;;;4.32;2.00;;;;;;;22.75;32.04;96814.69;4973175;28;20055;-75
2023/06/04 09:24:50;;;;;;;2.85;1.80;;;;;;;22.80;31.75;96820.81;4972860;28;20050;-75
2023/06/04 09:27:18;;;;;;;3.08;1.90;;;;;;;22.84;32.16;96821.91;4972684;28;20071;-75
2023/06/04 09:29:53;;;;;;;5.30;1.83;;;;;;;22.87;31.50;96825.94;4973154;28;20390;-74
2023/06/04 09:32:22;;;;;;;2.28;1.98;;;;;;;22.88;31.34;96822.22;4972926;28;20051;-75
2023/06/04 09:34:52;;;;;;;3.15;1.95;;;;;;;22.96;31.85;96818.28;4972441;28;20053;-75
2023/06/04 09:37:22;;;;;;;4.55;1.90;;;;;;;23.03;32.02;96814.38;4972559;28;20054;-75
2023/06/04 09:39:56;;;;;;;3.72;1.92;;;;;;;23.10;31.55;96829.31;4972873;28;20484;-75
2023/06/04 09:42:25;;;;;;;4.50;1.92;;;;;;;23.15;31.30;96826.69;4972479;28;20057;-75
2023/06/04 09:44:52;;;;;;;6.05;1.92;;;;;;;23.11;31.21;96822.94;4972523;28;20097;-75
2023/06/04 09:47:20;;;;;;;3.08;1.42;;;;;;;23.02;31.38;96822.59;4972517;28;20073;-76
2023/06/04 09:49:50;;;;;;;5.55;2.17;;;;;;;23.07;31.54;96821.84;4972531;28;20059;-76
2023/06/04 09:52:21;;;;;;;3.20;2.30;;;;;;;23.11;31.80;96822.94;4972563;28;20058;-76
2023/06/04 09:54:48;;;;;;;5.78;2.80;;;;;;;23.15;31.25;96813.38;4972422;28;20061;-76
2023/06/04 09:57:17;;;;;;;3.50;2.28;;;;;;;23.21;31.29;96812.34;4972264;28;20082;-76
2023/06/04 09:59:46;;;;;;;3.90;1.88;;;;;;;23.24;31.19;96809.16;4972469;28;20462;-76
2023/06/04 10:02:14;;;;;;;2.97;1.70;;;;;;;23.30;31.54;96807.34;4972268;28;20499;-76
2023/06/04 10:04:43;;;;;;;2.75;1.70;;;;;;;23.34;30.81;96811.91;4972495;28;20503;-76
2023/06/04 10:07:15;;;;;;;4.07;2.13;;;;;;;23.36;31.25;96811.66;4972107;28;20051;-76
2023/06/04 10:09:46;;;;;;;7.30;2.25;;;;;;;23.40;30.69;96805.53;4972372;28;20086;-76
2023/06/04 10:12:16;;;;;;;7.38;2.20;;;;;;;23.42;30.64;96806.09;4972415;28;20490;-76
2023/06/04 10:14:52;;;;;;;4.45;1.80;;;;;;;23.43;30.77;96806.88;4976200;28;20082;-76
2023/06/04 10:17:24;;;;;;;4.70;1.85;;;;;;;23.52;31.12;96804.53;4976049;28;20050;-76
2023/06/04 10:19:54;;;;;;;3.78;2.15;;;;;;;23.62;30.31;96793.94;4976074;28;20199;-76
2023/06/04 10:22:22;;;;;;;4.13;2.25;;;;;;;23.64;30.32;96802.47;4976209;28;20554;-77
2023/06/04 10:24:51;;;;;;;3.60;2.30;;;;;;;23.68;30.16;96813.38;4975998;28;20079;-76
2023/06/04 10:27:20;;;;;;;3.17;2.08;;;;;;;23.72;30.00;96809.94;4975957;28;20515;-76
2023/06/04 10:29:48;;;;;;;2.60;1.70;;;;;;;23.76;29.95;96800.38;4976318;28;20046;-76
2023/06/04 10:32:16;;;;;;;3.67;1.98;;;;;;;23.80;30.11;96798.00;4975531;28;20470;-76
2023/06/04 10:34:43;;;;;;;3.20;2.00;;;;;;;23.88;30.37;96802.03;4975962;28;20057;-76
2023/06/04 10:37:20;;;;;;;5.30;2.40;;;;;;;23.96;30.06;96804.19;4975403;28;20055;-76
2023/06/04 10:39:53;;;;;;;5.68;2.38;;;;;;;24.05;29.81;96802.59;4975708;28;20616;-76
2023/06/04 10:42:21;;;;;;;4.43;2.08;;;;;;;24.07;29.36;96800.47;4975798;28;20061;-76
2023/06/04 10:44:50;;;;;;;19.30;14.10;;;;;;;24.07;29.77;96805.81;4975612;28;20142;-76
2023/06/04 10:47:20;;;;;;;5.70;3.25;;;;;;;24.13;29.93;96804.75;4975808;28;20058;-76
2023/06/04 10:49:48;;;;;;;6.40;2.35;;;;;;;24.17;29.64;96797.84;4975700;28;20113;-76
2023/06/04 10:52:16;;;;;;;5.93;2.40;;;;;;;24.22;29.89;96800.50;4975707;28;20129;-76
2023/06/04 10:54:45;;;;;;;6.93;2.20;;;;;;;24.24;29.16;96803.69;4975423;28;20109;-76
2023/06/04 10:57:15;;;;;;;2.90;2.25;;;;;;;24.22;29.71;96803.16;4975231;28;20512;-76
2023/06/04 10:59:53;;;;;;;3.13;2.67;;;;;;;24.24;29.13;96801.03;4975147;28;20082;-76
2023/06/04 11:02:21;;;;;;;3.38;2.53;;;;;;;24.27;29.11;96805.84;4975357;28;20134;-76
2023/06/04 11:05:02;;;;;;;4.22;2.88;;;;;;;24.33;28.96;96813.84;4975280;28;20082;-76
2023/06/04 11:07:30;;;;;;;10.18;2.90;;;;;;;24.35;28.69;96811.72;4975344;28;20055;-76
2023/06/04 11:09:58;;;;;;;2.95;2.53;;;;;;;24.35;28.21;96806.41;4975011;28;20133;-76
2023/06/04 11:12:27;;;;;;;4.78;2.70;;;;;;;24.42;28.73;96799.75;4975292;28;20125;-76
2023/06/04 11:14:56;;;;;;;2.33;2.08;;;;;;;24.52;28.31;96795.50;4974897;28;20054;-76
2023/06/04 11:17:23;;;;;;;3.50;2.13;;;;;;;24.58;28.22;96789.91;4974943;28;20082;-76
2023/06/04 11:19:55;;;;;;;4.63;2.25;;;;;;;24.65;29.32;96795.78;4974999;28;20121;-76
2023/06/04 11:22:23;;;;;;;5.50;2.30;;;;;;;24.73;28.73;96793.63;4974753;28;20545;-76
2023/06/04 11:24:56;;;;;;;3.65;2.65;;;;;;;24.81;28.46;96793.09;4974293;28;20141;-76
2023/06/04 11:27:24;;;;;;;7.07;2.50;;;;;;;24.80;28.00;96796.84;4974876;28;20105;-76
2023/06/04 11:30:08;;;;;;;2.60;2.28;;;;;;;24.79;28.59;96801.34;4975084;28;20054;-76
2023/06/04 11:32:35;;;;;;;;;;;;;;;24.87;28.11;96792.03;4975371;28;20086;-76
2023/06/04 11:35:05;;;;;;;3.50;2.35;;;;;;;24.88;27.73;96793.63;4974554;28;19926;-76
2023/06/04 11:37:33;;;;;;;5.07;2.47;;;;;;;24.86;27.93;96793.06;4974894;28;20089;-76
2023/06/04 11:40:01;;;;;;;3.97;2.67;;;;;;;24.87;26.98;96784.03;4974813;28;20065;-76
2023/06/04 11:42:30;;;;;;;3.47;2.33;;;;;;;24.87;27.37;96792.03;4974668;28;20058;-76